Time;durP1;ratioP1;P1;durP2;ratioP2;P2;SDS_P1;SDS_P2;PMS_P1;PMS_P2;Temp;Humidity;BMP_temperature;BMP_pressure;BME280_temperature;BME280_humidity;BME280_pressure;Samples;Min_cycle;Max_cycle;Signal;HPM_P1;HPM_P2
2022/08/12 00:44:52;;;;;;;4.57;4.17;;;;;;;20.60;44.45;99447.88;4947330;28;20550;-92
2022/08/12 00:47:21;;;;;;;3.80;3.50;;;;;;;20.50;44.93;99454.19;4964316;28;20544;-92
2022/08/12 00:49:50;;;;;;;4.50;3.13;;;;;;;20.40;44.99;99453.50;4964798;28;20199;-93
2022/08/12 00:52:21;;;;;;;4.70;3.20;;;;;;;20.31;45.45;99459.84;4966322;28;20460;-91
2022/08/12 00:54:49;;;;;;;3.60;2.70;;;;;;;20.22;45.69;99458.13;4967276;28;20462;-92
2022/08/12 00:57:27;;;;;;;5.17;3.33;;;;;;;20.16;45.90;99461.47;4964141;28;21245;-91
2022/08/12 00:59:59;;;;;;;4.20;3.30;;;;;;;20.05;46.15;99460.75;4963715;28;20478;-91
2022/08/12 01:02:35;;;;;;;3.43;3.10;;;;;;;20.03;46.16;99465.41;4968187;28;20449;-93
2022/08/12 01:13:24;;;;;;;4.03;3.57;;;;;;;19.93;46.38;99467.41;4974596;28;20447;-91
2022/08/12 01:16:00;;;;;;;3.73;2.93;;;;;;;19.91;46.83;99469.38;4975433;28;20467;-92
2022/08/12 01:18:28;;;;;;;4.57;3.33;;;;;;;19.83;46.71;99470.19;4979967;28;20590;-91
2022/08/12 01:21:16;;;;;;;3.27;2.97;;;;;;;19.79;47.21;99466.16;4971134;28;20477;-93
2022/08/12 01:24:03;;;;;;;4.67;3.47;;;;;;;19.81;46.85;99461.50;4976534;28;20494;-89
2022/08/12 01:26:31;;;;;;;3.37;3.07;;;;;;;19.85;47.03;99464.69;4977262;28;20248;-92
2022/08/12 01:28:58;;;;;;;4.73;3.33;;;;;;;19.81;46.96;99464.16;4958959;28;21217;-90
2022/08/12 01:31:28;;;;;;;5.20;3.70;;;;;;;19.78;47.25;99458.34;4977003;28;20523;-91
2022/08/12 01:34:09;;;;;;;4.70;3.95;;;;;;;19.78;48.14;99453.00;4984080;28;20489;-91
2022/08/12 01:36:45;;;;;;;3.03;2.83;;;;;;;19.73;48.01;99456.13;4992780;28;20428;-91
2022/08/12 01:39:14;;;;;;;4.03;3.50;;;;;;;19.73;47.70;99455.31;4994227;28;20531;-91
2022/08/12 01:41:46;;;;;;;5.07;4.47;;;;;;;19.66;47.92;99444.47;5000052;28;20454;-91
2022/08/12 01:44:13;;;;;;;3.77;3.40;;;;;;;19.52;48.07;99447.69;4996851;28;20453;-92
2022/08/12 01:46:44;;;;;;;3.20;2.90;;;;;;;19.34;48.61;99450.44;4993010;28;20503;-91
2022/08/12 01:49:53;;;;;;;4.57;3.20;;;;;;;19.17;49.28;99455.66;4996225;28;20458;-92
2022/08/12 01:52:54;;;;;;;3.43;3.13;;;;;;;18.94;49.63;99449.16;4993073;28;20469;-90
2022/08/12 01:55:27;;;;;;;3.60;3.30;;;;;;;18.79;49.88;99454.19;4994413;28;20448;-93
2022/08/12 01:58:07;;;;;;;3.53;3.30;;;;;;;18.64;50.19;99443.25;4976795;28;20456;-91
2022/08/12 02:00:51;;;;;;;5.37;4.10;;;;;;;18.54;50.52;99445.16;4974262;28;20461;-92
2022/08/12 02:12:12;;;;;;;4.20;3.80;;;;;;;18.21;51.42;99441.34;4974244;28;20885;-91
2022/08/12 02:14:55;;;;;;;3.33;3.07;;;;;;;18.11;51.74;99434.25;4971722;28;20479;-90
2022/08/12 02:17:56;;;;;;;4.20;3.80;;;;;;;18.05;51.65;99436.69;4956406;28;20247;-92
2022/08/12 02:20:58;;;;;;;3.87;3.10;;;;;;;17.97;51.85;99432.13;4969102;28;20456;-91
2022/08/12 02:23:26;;;;;;;4.20;3.80;;;;;;;17.93;52.09;99433.41;4974591;28;20478;-91
2022/08/12 02:25:59;;;;;;;4.03;3.70;;;;;;;17.96;51.81;99429.59;4972508;28;20542;-92
2022/08/12 02:28:28;;;;;;;6.40;4.20;;;;;;;17.96;51.74;99425.16;4971411;28;20449;-92
2022/08/12 02:30:55;;;;;;;5.60;3.90;;;;;;;17.98;51.79;99427.63;4967622;28;20479;-91
2022/08/12 02:33:21;;;;;;;5.60;4.47;;;;;;;18.00;52.31;99420.34;4971198;28;20493;-93
2022/08/12 02:35:47;;;;;;;4.57;4.17;;;;;;;18.01;52.13;99422.00;4972554;28;20479;-92
2022/08/12 02:38:16;;;;;;;4.53;4.13;;;;;;;18.04;52.00;99424.41;4973921;28;20537;-92
2022/08/12 02:40:43;;;;;;;3.93;3.57;;;;;;;18.05;51.95;99421.56;4969421;28;20260;-92
2022/08/12 02:43:43;;;;;;;4.47;4.10;;;;;;;18.08;51.81;99415.13;4969882;28;20542;-91
2022/08/12 02:46:11;;;;;;;4.40;4.00;;;;;;;18.11;51.67;99412.16;4973271;28;20503;-91
2022/08/12 02:49:13;;;;;;;4.40;3.67;;;;;;;18.15;51.47;99418.88;4970916;28;20444;-91
2022/08/12 02:51:45;;;;;;;4.37;3.53;;;;;;;18.14;51.51;99419.81;4971480;28;20482;-91
2022/08/12 02:54:11;;;;;;;4.27;3.87;;;;;;;18.14;51.64;99425.16;4972359;28;21175;-90
2022/08/12 02:56:43;;;;;;;4.40;3.70;;;;;;;18.08;51.78;99428.41;4969694;28;20542;-91
2022/08/12 02:59:12;;;;;;;4.90;4.50;;;;;;;17.97;51.90;99424.16;4974237;28;20457;-91
2022/08/12 03:01:45;;;;;;;3.50;3.10;;;;;;;17.77;52.72;99414.56;4967781;28;20468;-91
2022/08/12 03:04:16;;;;;;;4.97;4.47;;;;;;;17.71;52.97;99429.28;4966298;28;20474;-90
2022/08/12 03:06:57;;;;;;;5.57;4.60;;;;;;;17.65;53.37;99425.41;4968745;28;20217;-92
2022/08/12 03:09:27;;;;;;;6.87;4.77;;;;;;;17.57;53.45;99430.63;4968618;28;20555;-91
2022/08/12 03:12:03;;;;;;;5.67;4.10;;;;;;;17.47;53.81;99422.72;4967863;28;20455;-91
2022/08/12 03:14:33;;;;;;;4.10;3.70;;;;;;;17.37;53.91;99427.22;4969192;28;20996;-91
2022/08/12 03:17:24;;;;;;;3.90;3.70;;;;;;;17.33;53.90;99424.97;4970669;28;20545;-93
2022/08/12 03:19:53;;;;;;;4.20;3.80;;;;;;;17.35;53.80;99428.34;4968770;28;20483;-93
2022/08/12 03:22:20;;;;;;;5.80;4.40;;;;;;;17.40;53.54;99426.09;4971657;28;20459;-91
2022/08/12 03:24:46;;;;;;;8.50;3.87;;;;;;;17.37;54.01;99419.25;4955566;28;20916;-91
2022/08/12 03:27:14;;;;;;;5.23;4.27;;;;;;;17.35;54.00;99418.56;4955575;28;20601;-91
2022/08/12 03:29:45;;;;;;;3.53;3.23;;;;;;;17.36;53.96;99422.03;4965411;28;20470;-92
2022/08/12 03:32:12;;;;;;;3.83;3.50;;;;;;;17.37;54.08;99413.09;4953467;28;20462;-91
2022/08/12 03:34:40;;;;;;;4.30;3.90;;;;;;;17.36;53.95;99414.06;4973254;28;20512;-91
2022/08/12 03:37:10;;;;;;;3.97;3.40;;;;;;;17.28;54.17;99417.44;4965789;28;20468;-92
2022/08/12 03:42:09;;;;;;;3.90;3.60;;;;;;;17.23;54.38;99407.28;4972665;28;20964;-92
2022/08/12 04:01:25;;;;;;;6.13;3.50;;;;;;;17.18;54.17;99420.16;4983922;28;20486;-91
2022/08/12 04:03:51;;;;;;;4.47;4.07;;;;;;;17.18;54.21;99425.47;4981102;28;21033;-90
2022/08/12 04:06:20;;;;;;;6.33;4.17;;;;;;;17.22;54.09;99424.19;4968968;28;20746;-91
2022/08/12 04:08:50;;;;;;;4.30;3.90;;;;;;;17.25;54.13;99431.00;4969248;28;20517;-92
2022/08/12 04:14:06;;;;;;;4.73;3.90;;;;;;;17.27;54.06;99434.38;4968610;28;21000;-92
2022/08/12 04:16:36;;;;;;;4.10;3.63;;;;;;;17.31;53.93;99441.06;4968862;28;21092;-93
2022/08/12 04:19:06;;;;;;;4.27;3.87;;;;;;;17.36;53.85;99445.94;4970447;28;20500;-91
2022/08/12 04:21:35;;;;;;;4.30;3.90;;;;;;;17.39;53.57;99451.81;4964020;28;20466;-93
2022/08/12 04:24:01;;;;;;;4.37;3.97;;;;;;;17.40;53.40;99448.16;4968909;28;20491;-91
2022/08/12 04:26:37;;;;;;;3.57;3.27;;;;;;;17.37;53.67;99448.44;4969430;28;20461;-92
2022/08/12 04:29:10;;;;;;;4.13;3.83;;;;;;;17.33;53.89;99441.75;4960947;28;20497;-92
2022/08/12 04:31:54;;;;;;;4.47;3.80;;;;;;;17.31;53.83;99440.22;4951134;28;20458;-93
2022/08/12 04:34:32;;;;;;;;;;;;;;;;;;;;;
2022/08/12 04:37:16;;;;;;;5.60;5.10;;;;;;;17.29;53.90;99435.06;4967598;28;20443;-94
2022/08/12 04:39:51;;;;;;;3.77;3.33;;;;;;;17.30;53.75;99444.69;4968283;28;20577;-93
2022/08/12 04:42:24;;;;;;;3.00;2.80;;;;;;;17.35;53.49;99445.09;4967903;28;20967;-91
2022/08/12 04:44:50;;;;;;;3.87;3.57;;;;;;;17.39;53.25;99449.16;4970309;28;20454;-92
2022/08/12 04:47:18;;;;;;;4.70;4.20;;;;;;;17.45;53.10;99456.53;4951353;28;20826;-92
2022/08/12 04:49:56;;;;;;;;;;;;;;;;;;;;;
2022/08/12 04:52:30;;;;;;;4.23;3.67;;;;;;;17.55;52.91;99455.63;4967698;28;21191;-91
2022/08/12 04:54:56;;;;;;;4.80;3.70;;;;;;;17.59;52.67;99454.38;4964347;28;20455;-94
2022/08/12 04:57:24;;;;;;;4.60;4.23;;;;;;;17.68;52.27;99448.19;4969795;28;20873;-91
2022/08/12 05:00:00;;;;;;;5.43;3.30;;;;;;;17.79;51.99;99455.97;4950222;28;20534;-94
2022/08/12 05:02:31;;;;;;;3.55;3.25;;;;;;;17.89;51.69;99454.13;4968480;28;20491;-91
2022/08/12 05:05:00;;;;;;;4.27;3.53;;;;;;;18.05;50.98;99455.28;4968224;28;20207;-92
2022/08/12 05:07:30;;;;;;;4.07;3.67;;;;;;;18.48;50.20;99443.09;4969022;28;20443;-91
2022/08/12 05:09:56;;;;;;;3.50;3.20;;;;;;;19.06;48.85;99450.56;4966195;28;20458;-93
2022/08/12 05:12:38;;;;;;;6.53;3.97;;;;;;;19.79;47.12;99446.66;4966841;28;20464;-91
2022/08/12 05:15:14;;;;;;;3.73;3.43;;;;;;;20.53;45.30;99442.34;4968723;28;20832;-91
2022/08/12 05:17:40;;;;;;;4.00;3.53;;;;;;;21.18;43.94;99447.69;4959740;28;21002;-92
2022/08/12 05:20:08;;;;;;;3.40;3.10;;;;;;;21.88;42.64;99443.47;4986073;28;20231;-92
2022/08/12 05:22:42;;;;;;;3.93;3.63;;;;;;;22.40;41.48;99440.19;4982770;28;20553;-92
2022/08/12 05:25:11;;;;;;;3.47;3.20;;;;;;;22.85;40.02;99441.19;4975851;28;20486;-91
2022/08/12 05:27:39;;;;;;;5.13;3.97;;;;;;;23.24;39.68;99447.38;4970007;28;20463;-92
2022/08/12 05:30:15;;;;;;;2.90;2.70;;;;;;;23.67;38.57;99444.88;4964855;28;20465;-92
2022/08/12 05:32:40;;;;;;;3.50;3.20;;;;;;;24.12;37.66;99446.50;4966297;28;20501;-92
2022/08/12 05:35:12;;;;;;;4.13;3.73;;;;;;;24.42;36.96;99444.53;4947305;28;20633;-94
2022/08/12 05:37:37;;;;;;;3.37;3.07;;;;;;;24.58;36.88;99443.50;4963503;28;20690;-94
2022/08/12 05:40:04;;;;;;;3.87;3.57;;;;;;;24.90;36.16;99438.63;4967527;28;20471;-92
2022/08/12 05:42:34;;;;;;;4.53;3.40;;;;;;;25.19;35.72;99448.34;4967113;28;20249;-93
2022/08/12 05:45:05;;;;;;;3.30;3.00;;;;;;;25.52;34.99;99439.66;4964398;28;21020;-93
2022/08/12 05:47:38;;;;;;;3.87;3.57;;;;;;;25.87;34.76;99442.34;4968161;28;20444;-92
2022/08/12 05:50:14;;;;;;;3.60;3.10;;;;;;;26.30;34.03;99442.88;4961944;28;20546;-92
2022/08/12 05:52:42;;;;;;;4.40;3.30;;;;;;;26.80;33.03;99447.97;4969783;28;20558;-91
2022/08/12 05:55:25;;;;;;;4.03;3.40;;;;;;;27.23;32.32;99444.88;4951135;28;20591;-92
2022/08/12 05:57:54;;;;;;;3.30;3.10;;;;;;;27.63;31.61;99437.50;4972141;28;20535;-93
2022/08/12 06:01:20;;;;;;;4.82;3.60;;;;;;;28.11;31.20;99444.38;4953591;28;20533;-94
2022/08/12 06:04:14;;;;;;;;;;;;;;;;;;;;;
2022/08/12 06:07:49;;;;;;;3.80;3.50;;;;;;;28.80;29.97;99427.31;4971270;28;20457;-93
2022/08/12 06:10:26;;;;;;;5.70;3.00;;;;;;;29.04;29.78;99430.28;4966482;28;20495;-92
2022/08/12 06:12:54;;;;;;;6.73;3.23;;;;;;;29.31;29.32;99439.78;4968815;28;20658;-92
2022/08/12 06:15:39;;;;;;;3.47;3.17;;;;;;;29.57;28.70;99435.16;4967837;28;20475;-92
2022/08/12 06:18:11;;;;;;;5.20;3.37;;;;;;;29.72;28.54;99446.44;4968036;28;20458;-92
2022/08/12 06:20:47;;;;;;;3.40;3.00;;;;;;;29.73;28.66;99442.69;4971787;28;20540;-94
2022/08/12 06:23:25;;;;;;;4.53;3.17;;;;;;;29.84;28.29;99441.09;4965983;28;20505;-92
2022/08/12 06:25:57;;;;;;;3.17;2.80;;;;;;;30.18;27.74;99438.75;4970267;28;20452;-93
2022/08/12 06:28:26;;;;;;;3.60;2.43;;;;;;;30.35;27.24;99433.53;4971681;28;20482;-92
2022/08/12 06:31:15;;;;;;;3.50;3.20;;;;;;;30.44;27.11;99434.88;4969494;28;20940;-92
2022/08/12 06:33:54;;;;;;;3.97;3.07;;;;;;;30.65;26.79;99433.53;4969168;28;21167;-92
2022/08/12 06:36:32;;;;;;;2.97;2.70;;;;;;;30.93;25.70;99438.28;4952792;28;20468;-92
2022/08/12 06:39:00;;;;;;;3.77;2.50;;;;;;;31.16;25.23;99445.59;4972753;28;20489;-93
2022/08/12 06:44:39;;;;;;;3.10;2.90;;;;;;;31.48;24.84;99437.94;4968889;28;20453;-94
2022/08/12 06:47:41;;;;;;;;;;;;;;;;;;;;;
2022/08/12 06:54:54;;;;;;;;;;;;;;;;;;;;;
2022/08/12 07:05:03;;;;;;;;;;;;;;;;;;;;;
2022/08/12 07:07:42;;;;;;;4.23;3.10;;;;;;;31.21;25.43;99424.00;4917340;28;20199;-93
2022/08/12 07:10:46;;;;;;;;;;;;;;;;;;;;;
2022/08/12 07:13:28;;;;;;;3.40;3.10;;;;;;;31.13;25.62;99415.41;4968619;28;20456;-93
2022/08/12 07:20:00;;;;;;;;;;;;;;;;;;;;;
2022/08/12 07:27:03;;;;;;;4.13;3.30;;;;;;;31.52;25.43;99406.53;4863171;29;20747;-93
2022/08/12 07:29:46;;;;;;;;;;;;;;;;;;;;;
2022/08/12 07:32:28;;;;;;;;;;;;;;;;;;;;;
2022/08/12 07:39:31;;;;;;;5.90;3.70;;;;;;;32.08;24.72;99395.16;4834991;29;20523;-93
2022/08/12 07:42:35;;;;;;;;;;;;;;;;;;;;;
2022/08/12 07:49:37;;;;;;;;;;;;;;;;;;;;;
2022/08/12 07:53:18;;;;;;;;;;;;;;;;;;;;;
2022/08/12 07:55:49;;;;;;;;;;;;;;;;;;;;;
2022/08/12 07:59:07;;;;;;;3.63;2.90;;;;;;;34.03;21.92;99375.16;4888755;28;20482;-93
2022/08/12 08:02:04;;;;;;;3.00;2.80;;;;;;;34.25;21.08;99368.88;4930069;29;20548;-93
2022/08/12 08:07:46;;;;;;;3.20;2.90;;;;;;;34.82;20.59;99368.25;4928253;29;20681;-94
2022/08/12 08:10:27;;;;;;;;;;;;;;;;;;;;;
2022/08/12 08:13:29;;;;;;;3.00;2.60;;;;;;;35.35;19.71;99363.66;4910091;28;20545;-93
2022/08/12 08:16:34;;;;;;;;;;;;;;;;;;;;;
2022/08/12 08:19:51;;;;;;;3.70;2.80;;;;;;;35.38;19.09;99363.13;4918621;29;20490;-92
2022/08/12 08:23:22;;;;;;;;;;;;;;;;;;;;;
2022/08/12 08:25:51;;;;;;;2.77;2.50;;;;;;;35.35;18.64;99366.38;4973677;28;20470;-91
2022/08/12 08:28:55;;;;;;;;;;;;;;;;;;;;;
2022/08/12 08:32:32;;;;;;;2.80;2.60;;;;;;;35.33;17.83;99363.09;4962334;28;21056;-93
2022/08/12 08:35:21;;;;;;;;;;;;;;;;;;;;;
2022/08/12 08:38:35;;;;;;;2.50;2.30;;;;;;;34.70;17.94;99357.53;4940095;28;20226;-91
2022/08/12 08:44:01;;;;;;;2.83;2.63;;;;;;;34.42;17.77;99364.09;4953999;28;20458;-92
2022/08/12 08:46:37;;;;;;;;;;;;;;;;;;;;;
2022/08/12 08:50:06;;;;;;;1.97;1.87;;;;;;;34.06;18.11;99352.06;4947339;28;20523;-93
2022/08/12 08:56:09;;;;;;;2.53;2.33;;;;;;;33.46;18.20;99351.91;4942533;28;20466;-91
2022/08/12 08:58:54;;;;;;;;;;;;;;;;;;;;;
2022/08/12 09:04:54;;;;;;;5.37;2.00;;;;;;;32.73;17.20;99342.16;4928805;29;20478;-91
2022/08/12 09:07:56;;;;;;;2.10;2.00;;;;;;;32.44;17.46;99344.97;4952209;28;20440;-93
2022/08/12 09:10:48;;;;;;;2.27;2.07;;;;;;;32.06;17.44;99351.94;4949406;28;20944;-93
2022/08/12 09:13:37;;;;;;;2.47;2.03;;;;;;;31.95;17.86;99348.22;4938142;28;20948;-93
2022/08/12 09:16:33;;;;;;;3.93;1.93;;;;;;;31.98;18.31;99346.09;4953885;28;20452;-92
2022/08/12 09:19:09;;;;;;;2.37;2.17;;;;;;;32.15;18.19;99342.31;4952683;28;20860;-94
2022/08/12 09:21:57;;;;;;;;;;;;;;;;;;;;;
2022/08/12 09:24:26;;;;;;;1.70;1.60;;;;;;;31.95;16.88;99341.97;4974184;23;21117;-78
2022/08/12 09:26:51;;;;;;;2.20;1.83;;;;;;;31.91;17.36;99338.03;4961934;28;20810;-79
2022/08/12 09:29:21;;;;;;;2.80;2.20;;;;;;;31.69;17.30;99329.75;4962804;28;20265;-77
2022/08/12 09:31:47;;;;;;;2.20;1.60;;;;;;;31.74;17.32;99327.13;4964763;28;20363;-79
2022/08/12 09:34:13;;;;;;;1.83;1.70;;;;;;;31.73;17.17;99328.19;4978438;28;20515;-78
2022/08/12 09:36:40;;;;;;;2.90;2.00;;;;;;;31.42;17.18;99321.34;4977916;28;20708;-78
2022/08/12 09:39:06;;;;;;;4.90;1.97;;;;;;;31.57;17.76;99320.81;4982275;28;20969;-78
2022/08/12 09:41:38;;;;;;;1.80;1.70;;;;;;;31.78;17.13;99312.00;4980710;28;20479;-78
2022/08/12 09:46:47;;;;;;;2.00;1.80;;;;;;;31.77;16.64;99309.53;4981534;28;20472;-77
2022/08/12 09:49:14;;;;;;;1.80;1.60;;;;;;;31.67;17.13;99316.41;4982075;28;20504;-79
2022/08/12 09:51:41;;;;;;;2.73;2.03;;;;;;;31.67;17.00;99313.69;4983764;28;20213;-78
2022/08/12 09:54:10;;;;;;;2.77;2.40;;;;;;;31.72;16.83;99302.13;4981714;28;20499;-77
2022/08/12 09:56:35;;;;;;;2.60;1.90;;;;;;;31.93;16.53;99306.88;4982620;28;20479;-79
2022/08/12 09:59:01;;;;;;;2.37;2.17;;;;;;;32.10;17.05;99308.78;4981464;28;20499;-79
2022/08/12 10:01:30;;;;;;;2.13;1.50;;;;;;;32.38;16.50;99306.00;4981520;28;20217;-77
2022/08/12 10:03:57;;;;;;;2.10;2.00;;;;;;;32.68;16.46;99304.03;4982783;28;20244;-78
2022/08/12 10:06:26;;;;;;;3.60;1.77;;;;;;;32.67;16.21;99300.47;4982093;28;20521;-78
2022/08/12 10:08:52;;;;;;;1.97;1.80;;;;;;;32.46;16.36;99295.75;4981264;28;20464;-78
2022/08/12 10:14:01;;;;;;;2.20;1.73;;;;;;;32.50;15.99;99297.78;4982309;28;20271;-79
2022/08/12 10:16:31;;;;;;;2.07;1.60;;;;;;;32.80;16.00;99285.69;4981765;28;20720;-77
2022/08/12 10:19:05;;;;;;;2.53;1.80;;;;;;;33.18;15.95;99281.31;4982325;28;20217;-77
2022/08/12 10:21:36;;;;;;;1.83;1.70;;;;;;;33.45;15.65;99286.81;4981961;28;20982;-77
2022/08/12 10:24:10;;;;;;;3.07;1.80;;;;;;;33.41;15.72;99277.50;4982839;28;20492;-79
2022/08/12 10:29:35;;;;;;;1.70;1.57;;;;;;;33.45;15.44;99265.00;4983168;28;20554;-79
2022/08/12 10:32:09;;;;;;;2.37;1.80;;;;;;;33.62;15.53;99270.38;4983682;28;20478;-77
2022/08/12 10:34:35;;;;;;;2.87;1.80;;;;;;;33.76;15.57;99266.19;4981735;28;20486;-79
2022/08/12 10:37:02;;;;;;;2.40;2.20;;;;;;;33.71;15.28;99269.69;4982777;28;20876;-80
2022/08/12 10:39:35;;;;;;;2.73;1.97;;;;;;;33.76;15.31;99262.66;4963802;28;21030;-78
2022/08/12 10:44:47;;;;;;;3.33;1.97;;;;;;;34.18;15.31;99264.66;4981773;28;20598;-77
2022/08/12 10:47:15;;;;;;;2.53;2.10;;;;;;;34.22;14.96;99263.06;4981491;28;20571;-77
2022/08/12 10:49:43;;;;;;;3.00;2.07;;;;;;;34.15;14.89;99263.28;4981572;28;20206;-79
2022/08/12 10:52:08;;;;;;;1.50;1.40;;;;;;;34.12;15.26;99269.25;4985523;28;20726;-80
2022/08/12 10:54:34;;;;;;;1.80;1.40;;;;;;;34.05;15.09;99257.69;4986480;28;20476;-79
2022/08/12 10:56:59;;;;;;;2.23;1.77;;;;;;;33.82;15.24;99250.72;4984460;28;20701;-79
2022/08/12 10:59:28;;;;;;;3.60;1.90;;;;;;;33.80;15.14;99248.22;4983633;28;20834;-82
2022/08/12 11:01:55;;;;;;;2.50;2.30;;;;;;;33.99;15.56;99245.94;4982904;28;20226;-77
2022/08/12 11:04:21;;;;;;;3.70;2.23;;;;;;;34.07;15.31;99250.94;4981351;28;21077;-76
2022/08/12 11:06:47;;;;;;;2.07;1.87;;;;;;;34.04;15.19;99245.16;4982049;28;20495;-76
2022/08/12 11:09:30;;;;;;;2.13;1.77;;;;;;;33.86;15.38;99244.47;4981552;28;20464;-76
2022/08/12 11:11:58;;;;;;;2.07;1.87;;;;;;;33.75;15.45;99244.66;4982240;28;20816;-76
2022/08/12 11:14:27;;;;;;;2.30;1.90;;;;;;;33.65;15.45;99242.66;4980847;28;21167;-76
2022/08/12 11:16:57;;;;;;;1.80;1.43;;;;;;;33.67;15.38;99235.84;4983467;28;20492;-76
2022/08/12 11:19:23;;;;;;;1.63;1.53;;;;;;;33.65;15.45;99237.22;4984212;28;20583;-77
2022/08/12 11:21:49;;;;;;;2.03;1.90;;;;;;;33.61;15.63;99233.34;4984800;28;20490;-77
2022/08/12 11:24:23;;;;;;;3.00;2.03;;;;;;;33.58;15.69;99233.88;4992160;23;20509;-88
2022/08/12 11:26:49;;;;;;;1.80;1.70;;;;;;;33.30;15.68;99234.91;4971396;28;20452;-87
2022/08/12 11:29:19;;;;;;;3.47;1.60;;;;;;;33.24;15.56;99236.75;4962560;28;20471;-87
2022/08/12 11:31:47;;;;;;;4.37;2.47;;;;;;;33.19;15.64;99229.38;4959396;28;20465;-86
2022/08/12 11:34:14;;;;;;;1.77;1.67;;;;;;;33.14;15.26;99225.75;4963527;28;20453;-86
2022/08/12 11:36:52;;;;;;;1.87;1.63;;;;;;;33.15;15.15;99221.94;4969215;28;21601;-88
2022/08/12 11:39:18;;;;;;;2.60;2.03;;;;;;;33.21;15.04;99218.19;4963030;28;20499;-86
2022/08/12 11:41:46;;;;;;;1.87;1.73;;;;;;;33.21;15.17;99218.19;4963569;28;20460;-88
2022/08/12 11:44:12;;;;;;;1.90;1.57;;;;;;;33.22;15.33;99217.16;4962123;28;20477;-86
2022/08/12 11:46:40;;;;;;;3.20;1.60;;;;;;;33.18;15.43;99211.38;4880352;28;20513;-86
2022/08/12 11:49:09;;;;;;;2.43;1.83;;;;;;;32.79;15.35;99207.91;4940069;28;20206;-87
2022/08/12 11:51:36;;;;;;;2.13;1.70;;;;;;;32.69;15.61;99210.47;4952100;28;20498;-88
2022/08/12 11:54:02;;;;;;;1.97;1.73;;;;;;;32.67;16.04;99202.56;4924083;28;20457;-88
2022/08/12 11:56:30;;;;;;;1.77;1.67;;;;;;;32.68;15.87;99195.25;4941825;28;20457;-89
2022/08/12 11:58:56;;;;;;;1.97;1.60;;;;;;;32.78;16.29;99190.75;4943397;28;20559;-90
2022/08/12 12:01:22;;;;;;;2.47;2.00;;;;;;;32.79;15.89;99192.41;4951501;28;20664;-88
2022/08/12 12:03:48;;;;;;;1.67;1.57;;;;;;;32.62;15.54;99205.22;4942530;28;20296;-86
2022/08/12 12:06:14;;;;;;;2.03;1.73;;;;;;;32.56;15.70;99193.44;4941807;28;20214;-88
2022/08/12 12:08:40;;;;;;;2.10;1.90;;;;;;;32.60;15.59;99200.03;4947395;28;20257;-88
2022/08/12 12:11:09;;;;;;;2.80;1.93;;;;;;;32.54;15.98;99202.94;4946775;28;20469;-88
2022/08/12 12:13:37;;;;;;;2.17;1.60;;;;;;;32.63;15.81;99201.44;4960177;28;20465;-88
2022/08/12 12:16:02;;;;;;;1.60;1.50;;;;;;;32.60;15.89;99189.16;4949482;28;20870;-89
2022/08/12 12:18:30;;;;;;;2.00;1.57;;;;;;;32.50;15.73;99190.94;4949863;28;20222;-90
2022/08/12 12:23:24;;;;;;;2.57;2.03;;;;;;;32.48;16.22;99174.03;4959280;28;20508;-79
2022/08/12 12:25:49;;;;;;;3.27;1.60;;;;;;;32.62;15.80;99183.47;4966270;28;20469;-77
2022/08/12 12:28:15;;;;;;;2.77;1.63;;;;;;;32.80;16.10;99180.44;4960623;28;20229;-78
2022/08/12 12:30:41;;;;;;;1.80;1.70;;;;;;;32.97;15.73;99171.38;4964377;28;20609;-79
2022/08/12 12:33:08;;;;;;;2.58;1.77;;;;;;;33.12;15.65;99159.88;4958002;28;20485;-79
2022/08/12 12:35:34;;;;;;;1.40;1.30;;;;;;;33.17;15.43;99168.91;4957527;28;20217;-78
2022/08/12 12:38:02;;;;;;;3.30;1.40;;;;;;;33.18;15.39;99172.44;4959819;28;20692;-77
2022/08/12 12:40:28;;;;;;;1.83;1.30;;;;;;;33.02;14.77;99171.47;4952562;28;20451;-79
2022/08/12 12:42:54;;;;;;;1.63;1.53;;;;;;;33.03;15.09;99171.22;4962597;28;20460;-77
2022/08/12 12:45:20;;;;;;;3.00;1.53;;;;;;;32.79;15.23;99164.38;4954193;28;20489;-79
2022/08/12 12:48:03;;;;;;;1.67;1.57;;;;;;;32.61;15.08;99162.78;4959389;28;20621;-78
2022/08/12 12:50:31;;;;;;;4.63;1.50;;;;;;;32.62;14.79;99159.00;4951311;28;20446;-79
2022/08/12 12:52:57;;;;;;;1.87;1.37;;;;;;;32.75;14.77;99163.22;4956149;28;20561;-79
2022/08/12 12:55:23;;;;;;;1.70;1.60;;;;;;;32.89;14.48;99169.09;4949325;28;20540;-77
2022/08/12 12:57:49;;;;;;;4.40;1.60;;;;;;;32.96;14.31;99156.13;4951333;28;20242;-76
2022/08/12 13:00:17;;;;;;;3.17;1.70;;;;;;;33.06;14.76;99156.28;4949554;28;20526;-77
2022/08/12 13:02:44;;;;;;;1.83;1.63;;;;;;;33.14;14.51;99155.00;4958689;28;20301;-78
2022/08/12 13:05:11;;;;;;;1.50;1.40;;;;;;;33.01;14.66;99158.94;4954661;28;20553;-76
2022/08/12 13:07:39;;;;;;;1.90;1.80;;;;;;;32.76;14.59;99160.28;4954080;28;20479;-77
2022/08/12 13:10:05;;;;;;;2.40;2.20;;;;;;;32.78;14.95;99157.28;4957190;28;20469;-78
2022/08/12 13:12:32;;;;;;;2.80;1.90;;;;;;;32.89;14.45;99153.59;4960426;28;20465;-78
2022/08/12 13:14:58;;;;;;;1.97;1.77;;;;;;;32.79;14.53;99156.22;4960116;28;20930;-77
2022/08/12 13:17:23;;;;;;;5.67;1.50;;;;;;;32.64;14.79;99153.31;4959219;28;20469;-78
2022/08/12 13:19:48;;;;;;;2.40;1.97;;;;;;;32.59;14.85;99149.47;4973850;28;20226;-77
2022/08/12 13:22:16;;;;;;;4.30;1.60;;;;;;;32.66;14.48;99148.44;4982050;28;20241;-78
2022/08/12 13:24:42;;;;;;;2.37;1.90;;;;;;;32.64;14.91;99140.53;4988188;28;20333;-77
2022/08/12 13:27:08;;;;;;;2.57;1.80;;;;;;;32.79;14.81;99140.72;4958682;28;20588;-78
2022/08/12 13:29:37;;;;;;;2.07;1.60;;;;;;;32.86;14.91;99142.41;4972356;28;20210;-78
2022/08/12 13:32:04;;;;;;;1.93;1.70;;;;;;;32.80;14.97;99147.78;4948197;29;20278;-77
2022/08/12 13:34:31;;;;;;;1.97;1.50;;;;;;;32.93;15.14;99138.41;4958206;29;20497;-79
2022/08/12 13:36:57;;;;;;;2.00;1.40;;;;;;;32.88;14.93;99132.91;4948678;29;20447;-78
2022/08/12 13:39:23;;;;;;;1.63;1.53;;;;;;;32.93;14.53;99137.59;4953669;29;20585;-80
2022/08/12 13:41:48;;;;;;;2.23;1.57;;;;;;;32.93;14.61;99140.31;4952882;29;20450;-78
2022/08/12 13:44:14;;;;;;;1.50;1.40;;;;;;;32.98;14.61;99145.81;4955006;29;20231;-78
2022/08/12 13:46:40;;;;;;;1.40;1.30;;;;;;;32.90;14.27;99136.22;4970807;28;20213;-77
2022/08/12 13:49:10;;;;;;;1.57;1.47;;;;;;;32.95;14.82;99136.28;4965430;29;20237;-79
2022/08/12 13:51:36;;;;;;;2.07;1.93;;;;;;;32.91;14.81;99128.88;4945778;29;20462;-78
2022/08/12 13:54:03;;;;;;;2.43;1.40;;;;;;;33.01;14.65;99129.84;4955427;29;20497;-78
2022/08/12 13:56:32;;;;;;;1.43;1.33;;;;;;;33.13;14.60;99129.66;4952686;29;20463;-79
2022/08/12 13:59:00;;;;;;;2.83;1.73;;;;;;;33.21;14.57;99129.19;4953659;29;20565;-78
2022/08/12 14:01:25;;;;;;;6.10;2.53;;;;;;;33.17;14.44;99124.56;4950901;29;20546;-79
2022/08/12 14:03:52;;;;;;;2.77;1.43;;;;;;;33.16;14.47;99120.16;4946116;29;20478;-78
2022/08/12 14:06:19;;;;;;;2.17;1.37;;;;;;;33.17;14.09;99117.19;4951520;29;20282;-80
2022/08/12 14:08:44;;;;;;;2.60;1.40;;;;;;;33.09;14.54;99114.13;4962527;29;20472;-80
2022/08/12 14:11:10;;;;;;;2.57;1.60;;;;;;;33.01;14.98;99123.56;4952069;29;20474;-79
2022/08/12 14:13:38;;;;;;;1.93;1.73;;;;;;;33.16;14.81;99109.28;4947532;29;20608;-78
2022/08/12 14:16:06;;;;;;;1.50;1.30;;;;;;;33.26;14.34;99110.19;4953962;29;20230;-79
2022/08/12 14:18:33;;;;;;;2.93;1.53;;;;;;;33.10;14.15;99116.56;4948603;29;20441;-79
2022/08/12 14:21:02;;;;;;;3.40;1.57;;;;;;;32.94;14.37;99106.59;4948635;29;21042;-78
2022/08/12 14:23:33;;;;;;;1.63;1.40;;;;;;;32.96;14.14;99115.31;4938953;29;20486;-78
2022/08/12 14:26:05;;;;;;;2.63;1.53;;;;;;;32.99;13.92;99103.91;4940978;29;20516;-79
2022/08/12 14:28:33;;;;;;;1.37;1.27;;;;;;;33.05;14.03;99109.22;4940532;29;20581;-79
2022/08/12 14:31:04;;;;;;;1.80;1.70;;;;;;;33.08;14.17;99098.88;4938616;29;20462;-81
2022/08/12 14:33:34;;;;;;;2.83;1.37;;;;;;;32.94;14.35;99101.97;4948175;29;20478;-83
2022/08/12 14:36:02;;;;;;;1.67;1.57;;;;;;;32.77;14.16;99102.06;4944295;29;20964;-82
2022/08/12 14:38:38;;;;;;;1.73;1.63;;;;;;;32.70;14.42;99101.44;4942706;29;20878;-82
2022/08/12 14:41:08;;;;;;;1.80;1.47;;;;;;;32.72;14.03;99099.28;4937516;29;20467;-83
2022/08/12 14:43:37;;;;;;;2.80;1.63;;;;;;;32.74;14.40;99093.59;4943745;29;20482;-82
2022/08/12 14:46:07;;;;;;;1.93;1.50;;;;;;;32.65;13.87;99106.00;4941075;29;20485;-82
2022/08/12 14:48:33;;;;;;;3.87;1.90;;;;;;;32.60;14.83;99102.16;4944893;29;20459;-82
2022/08/12 14:50:59;;;;;;;1.83;1.50;;;;;;;32.66;14.35;99094.88;4938965;29;20504;-82
2022/08/12 14:53:26;;;;;;;3.40;1.63;;;;;;;32.75;14.76;99097.94;4941440;29;20522;-84
2022/08/12 14:55:51;;;;;;;1.57;1.47;;;;;;;32.82;14.57;99093.97;4935310;29;20462;-83